Time;durP1;ratioP1;P1;durP2;ratioP2;P2;SDS_P1;SDS_P2;PMS_P1;PMS_P2;Temp;Humidity;BMP_temperature;BMP_pressure;BME280_temperature;BME280_humidity;BME280_pressure;Samples;Min_cycle;Max_cycle;Signal;HPM_P1;HPM_P2
2021/04/23 00:01:21;;;;;;;8.77;5.57;;;;;;;;;;5053464;28;20205;-71
2021/04/23 00:04:07;;;;;;;10.83;5.77;;;;;;;;;;5054006;28;20205;-71
2021/04/23 00:06:52;;;;;;;11.40;5.50;;;;;;;;;;5053444;28;20269;-71
2021/04/23 00:09:37;;;;;;;11.17;6.13;;;;;;;;;;5053295;28;20300;-71
2021/04/23 00:12:25;;;;;;;15.07;5.97;;;;;;;;;;5053499;28;20229;-71
2021/04/23 00:15:11;;;;;;;11.98;6.53;;;;;;;;;;5052888;28;20923;-71
2021/04/23 00:17:56;;;;;;;11.83;5.60;;;;;;;;;;5053561;28;20201;-71
2021/04/23 00:20:41;;;;;;;12.13;5.67;;;;;;;;;;5052545;28;20803;-71
2021/04/23 00:23:26;;;;;;;9.70;5.80;;;;;;;;;;5053357;28;20202;-71
2021/04/23 00:26:11;;;;;;;10.57;5.37;;;;;;;;;;5053359;28;20259;-71
2021/04/23 00:28:55;;;;;;;9.45;6.50;;;;;;;;;;5052466;28;20451;-71
2021/04/23 00:34:45;;;;;;;9.93;5.63;;;;;;;;;;5054015;28;20225;-70
2021/04/23 00:37:29;;;;;;;11.47;5.37;;;;;;;;;;5053474;28;20554;-71
2021/04/23 00:40:19;;;;;;;10.47;5.13;;;;;;;;;;5052686;28;20301;-71
2021/04/23 00:43:04;;;;;;;11.23;5.63;;;;;;;;;;5053070;28;20202;-71
2021/04/23 00:45:49;;;;;;;11.90;5.57;;;;;;;;;;5053004;28;20221;-71
2021/04/23 00:48:36;;;;;;;12.13;5.97;;;;;;;;;;5053002;28;20225;-71
2021/04/23 00:51:21;;;;;;;9.60;5.63;;;;;;;;;;5052627;28;20244;-71
2021/04/23 00:54:06;;;;;;;8.80;5.33;;;;;;;;;;5052930;28;20571;-71
2021/04/23 00:56:51;;;;;;;10.30;5.80;;;;;;;;;;5052822;28;20200;-71
2021/04/23 00:59:35;;;;;;;10.73;5.40;;;;;;;;;;5052219;28;20715;-71
2021/04/23 01:02:20;;;;;;;9.37;5.30;;;;;;;;;;5053185;28;20213;-71
2021/04/23 01:05:06;;;;;;;9.63;5.43;;;;;;;;;;5052785;28;20289;-71
2021/04/23 01:07:51;;;;;;;10.07;5.80;;;;;;;;;;5052247;28;20233;-71
2021/04/23 01:10:36;;;;;;;10.80;5.67;;;;;;;;;;5052011;28;20632;-71
2021/04/23 01:13:22;;;;;;;10.73;5.20;;;;;;;;;;5052550;28;20253;-71
2021/04/23 01:16:08;;;;;;;10.57;6.60;;;;;;;;;;5051984;28;20815;-71
2021/04/23 01:18:53;;;;;;;9.07;6.00;;;;;;;;;;5052296;28;20256;-71
2021/04/23 01:21:39;;;;;;;12.13;6.20;;;;;;;;;;5051814;28;20264;-71
2021/04/23 01:24:23;;;;;;;8.97;5.90;;;;;;;;;;5052244;28;20205;-71
2021/04/23 01:27:08;;;;;;;12.13;6.60;;;;;;;;;;5051993;28;20244;-71
2021/04/23 01:29:53;;;;;;;9.20;6.03;;;;;;;;;;5051634;28;20225;-71
2021/04/23 01:32:38;;;;;;;10.67;6.10;;;;;;;;;;5052187;28;20282;-71
2021/04/23 01:35:24;;;;;;;9.80;6.03;;;;;;;;;;5052105;28;20239;-71
2021/04/23 01:38:10;;;;;;;8.93;6.10;;;;;;;;;;5052017;28;20791;-71
2021/04/23 01:40:55;;;;;;;12.97;6.03;;;;;;;;;;5051364;28;20384;-71
2021/04/23 01:43:39;;;;;;;10.73;6.20;;;;;;;;;;5051957;28;20217;-71
2021/04/23 01:46:24;;;;;;;12.83;6.17;;;;;;;;;;5051533;28;20311;-71
2021/04/23 01:49:10;;;;;;;11.03;6.40;;;;;;;;;;5051593;28;20267;-71
2021/04/23 01:51:56;;;;;;;12.90;7.60;;;;;;;;;;5051144;28;20815;-71
2021/04/23 01:54:42;;;;;;;15.83;7.60;;;;;;;;;;5051647;28;20201;-71
2021/04/23 01:57:26;;;;;;;16.13;6.97;;;;;;;;;;5051803;28;20267;-71
2021/04/23 02:00:14;;;;;;;11.70;7.27;;;;;;;;;;5051116;28;20248;-70
2021/04/23 02:03:00;;;;;;;12.03;7.20;;;;;;;;;;5051534;28;20208;-71
2021/04/23 02:05:47;;;;;;;14.88;8.50;;;;;;;;;;5051177;28;20411;-71
2021/04/23 02:08:32;;;;;;;13.77;7.50;;;;;;;;;;5051725;28;20664;-71
2021/04/23 02:11:18;;;;;;;10.57;7.13;;;;;;;;;;5050933;28;20201;-71
2021/04/23 02:14:03;;;;;;;13.30;7.40;;;;;;;;;;5051309;28;20309;-71
2021/04/23 02:16:48;;;;;;;10.83;6.40;;;;;;;;;;5051138;28;20205;-71
2021/04/23 02:19:33;;;;;;;10.90;7.33;;;;;;;;;;5050677;28;20249;-71
2021/04/23 02:22:17;;;;;;;10.40;6.90;;;;;;;;;;5050384;28;20267;-71
2021/04/23 02:25:02;;;;;;;12.50;6.50;;;;;;;;;;5051150;28;20675;-71
2021/04/23 02:27:48;;;;;;;9.87;6.30;;;;;;;;;;5050755;28;20590;-71
2021/04/23 02:30:35;;;;;;;6.77;5.77;;;;;;;;;;5050498;28;20770;-71
2021/04/23 02:33:20;;;;;;;8.60;6.23;;;;;;;;;;5051049;28;20247;-71
2021/04/23 02:36:05;;;;;;;13.63;7.00;;;;;;;;;;5051001;28;20614;-71
2021/04/23 02:38:49;;;;;;;10.57;7.13;;;;;;;;;;5050876;28;20268;-71
2021/04/23 02:41:34;;;;;;;11.60;7.95;;;;;;;;;;5049209;28;20995;-71
2021/04/23 02:44:20;;;;;;;16.37;7.60;;;;;;;;;;5050990;28;20252;-71
2021/04/23 02:47:05;;;;;;;11.00;7.20;;;;;;;;;;5050974;28;20229;-71
2021/04/23 02:49:49;;;;;;;12.83;7.20;;;;;;;;;;5050615;28;20641;-71
2021/04/23 02:52:34;;;;;;;12.43;6.50;;;;;;;;;;5050786;28;20201;-71
2021/04/23 02:55:18;;;;;;;14.55;8.90;;;;;;;;;;5049740;28;20437;-71
2021/04/23 02:58:04;;;;;;;16.23;8.27;;;;;;;;;;5050289;28;20196;-71
2021/04/23 03:00:52;;;;;;;13.30;7.80;;;;;;;;;;5050331;28;20348;-71
2021/04/23 03:03:37;;;;;;;14.27;8.00;;;;;;;;;;5050795;28;20202;-71
2021/04/23 03:06:22;;;;;;;13.20;7.43;;;;;;;;;;5050538;28;20347;-71
2021/04/23 03:09:07;;;;;;;12.17;7.60;;;;;;;;;;5050662;28;20221;-71
2021/04/23 03:11:51;;;;;;;14.67;7.70;;;;;;;;;;5050727;28;20201;-71
2021/04/23 03:14:36;;;;;;;10.87;7.43;;;;;;;;;;5050794;28;20236;-71
2021/04/23 03:17:21;;;;;;;10.63;7.80;;;;;;;;;;5049865;28;20754;-70
2021/04/23 03:20:10;;;;;;;13.87;8.07;;;;;;;;;;5049629;28;20265;-71
2021/04/23 03:22:56;;;;;;;9.10;6.80;;;;;;;;;;5054460;28;20346;-71
2021/04/23 03:25:40;;;;;;;14.90;8.03;;;;;;;;;;5054587;28;20566;-71
2021/04/23 03:28:25;;;;;;;12.13;7.63;;;;;;;;;;5049661;28;20240;-70
2021/04/23 03:31:11;;;;;;;11.30;7.53;;;;;;;;;;5054066;28;20648;-71
2021/04/23 03:33:56;;;;;;;13.43;7.33;;;;;;;;;;5054480;28;20335;-71
2021/04/23 03:36:40;;;;;;;14.27;8.13;;;;;;;;;;5054252;28;20245;-71
2021/04/23 03:39:25;;;;;;;12.13;7.37;;;;;;;;;;5053344;28;20221;-71
2021/04/23 03:42:09;;;;;;;19.02;10.20;;;;;;;;;;5053469;28;20474;-71
2021/04/23 03:44:55;;;;;;;16.00;8.40;;;;;;;;;;5054284;28;20251;-71
2021/04/23 03:47:39;;;;;;;12.53;8.10;;;;;;;;;;5054245;28;20245;-71
2021/04/23 03:50:26;;;;;;;12.90;8.40;;;;;;;;;;5053309;28;20216;-71
2021/04/23 03:53:12;;;;;;;15.90;8.67;;;;;;;;;;5053861;28;20715;-71
2021/04/23 03:55:57;;;;;;;14.10;8.83;;;;;;;;;;5053957;28;20264;-71
2021/04/23 03:58:43;;;;;;;16.30;8.70;;;;;;;;;;5053886;28;20869;-71
2021/04/23 04:01:27;;;;;;;14.63;8.30;;;;;;;;;;5053184;28;20201;-71
2021/04/23 04:04:12;;;;;;;13.40;8.60;;;;;;;;;;5053765;28;20224;-71
2021/04/23 04:06:57;;;;;;;18.07;8.90;;;;;;;;;;5053572;28;20221;-71
2021/04/23 04:09:42;;;;;;;13.90;8.53;;;;;;;;;;5053066;28;20217;-71
2021/04/23 04:12:26;;;;;;;13.77;9.63;;;;;;;;;;5053639;28;20209;-71
2021/04/23 04:15:11;;;;;;;13.93;8.60;;;;;;;;;;5053317;28;20224;-71
2021/04/23 04:17:56;;;;;;;13.47;9.73;;;;;;;;;;5053437;28;20206;-71
2021/04/23 04:20:42;;;;;;;14.40;9.33;;;;;;;;;;5052886;28;20229;-71
2021/04/23 04:23:28;;;;;;;15.50;9.40;;;;;;;;;;5053382;28;20575;-71
2021/04/23 04:26:12;;;;;;;18.03;8.97;;;;;;;;;;5053436;28;20217;-71
2021/04/23 04:28:56;;;;;;;14.38;8.60;;;;;;;;;;5053105;28;20934;-71
2021/04/23 04:31:41;;;;;;;13.90;8.03;;;;;;;;;;5053142;28;20699;-71
2021/04/23 04:34:25;;;;;;;16.07;8.53;;;;;;;;;;5052440;28;20197;-71
2021/04/23 04:37:10;;;;;;;17.60;9.30;;;;;;;;;;5053040;28;20194;-70
2021/04/23 04:39:55;;;;;;;14.70;8.93;;;;;;;;;;5052234;28;20275;-71
2021/04/23 04:42:40;;;;;;;15.00;8.93;;;;;;;;;;5051841;28;20575;-71
2021/04/23 04:45:26;;;;;;;14.50;8.90;;;;;;;;;;5052588;28;20208;-71
2021/04/23 04:48:11;;;;;;;17.90;9.60;;;;;;;;;;5052555;28;20610;-71
2021/04/23 04:50:57;;;;;;;17.53;9.23;;;;;;;;;;5052360;28;20259;-71
2021/04/23 04:53:41;;;;;;;19.83;9.73;;;;;;;;;;5052151;28;20205;-71
2021/04/23 04:56:27;;;;;;;16.13;9.57;;;;;;;;;;5040164;28;20197;-71
2021/04/23 04:59:11;;;;;;;17.60;9.70;;;;;;;;;;5052474;28;20232;-70
2021/04/23 05:02:03;;;;;;;14.53;9.60;;;;;;;;;;5052614;28;20224;-71
2021/04/23 05:04:50;;;;;;;16.73;10.20;;;;;;;;;;5052689;28;20201;-71
2021/04/23 05:07:34;;;;;;;16.30;8.63;;;;;;;;;;5052332;28;20279;-70
2021/04/23 05:10:19;;;;;;;16.87;8.87;;;;;;;;;;5052037;28;20738;-70
2021/04/23 05:13:05;;;;;;;16.90;9.80;;;;;;;;;;5052479;28;20228;-71
2021/04/23 05:15:49;;;;;;;14.10;9.07;;;;;;;;;;5052164;28;20240;-71
2021/04/23 05:18:34;;;;;;;17.88;10.10;;;;;;;;;;5051845;28;20413;-71
2021/04/23 05:21:18;;;;;;;15.73;9.63;;;;;;;;;;5051570;28;20205;-71
2021/04/23 05:24:03;;;;;;;15.43;9.07;;;;;;;;;;5052401;28;20193;-68
2021/04/23 05:26:47;;;;;;;12.77;8.27;;;;;;;;;;5052305;28;20313;-71
2021/04/23 05:29:33;;;;;;;16.83;9.20;;;;;;;;;;5050889;28;20217;-71
2021/04/23 05:32:20;;;;;;;11.77;8.30;;;;;;;;;;5035719;28;20206;-73
2021/04/23 05:35:04;;;;;;;15.97;8.97;;;;;;;;;;5049505;28;20688;-76
2021/04/23 05:37:50;;;;;;;17.27;10.00;;;;;;;;;;5050511;28;20202;-75
2021/04/23 05:40:36;;;;;;;17.63;9.27;;;;;;;;;;5051311;28;20397;-73
2021/04/23 05:43:20;;;;;;;16.03;9.77;;;;;;;;;;5050945;28;20520;-73
2021/04/23 05:46:05;;;;;;;17.63;9.83;;;;;;;;;;5051299;28;20226;-72
2021/04/23 05:48:50;;;;;;;12.23;9.13;;;;;;;;;;5051114;28;20237;-75
2021/04/23 05:51:34;;;;;;;16.07;10.10;;;;;;;;;;5051151;28;20250;-73
2021/04/23 05:54:19;;;;;;;17.47;9.97;;;;;;;;;;5051539;28;20602;-73
2021/04/23 05:57:04;;;;;;;14.27;9.77;;;;;;;;;;5050907;28;20249;-69
2021/04/23 05:59:48;;;;;;;15.97;10.20;;;;;;;;;;5050958;28;20679;-70
2021/04/23 06:02:34;;;;;;;13.77;9.80;;;;;;;;;;5048531;28;20248;-70
2021/04/23 06:05:18;;;;;;;16.67;10.13;;;;;;;;;;5051711;28;20249;-70
2021/04/23 06:08:04;;;;;;;16.42;10.52;;;;;;;;;;5050857;28;20469;-70
2021/04/23 06:10:49;;;;;;;20.20;14.43;;;;;;;;;;5050925;28;20336;-71
2021/04/23 06:13:33;;;;;;;18.97;13.67;;;;;;;;;;5051587;28;20219;-71
2021/04/23 06:16:17;;;;;;;19.63;12.47;;;;;;;;;;5051251;28;20289;-71
2021/04/23 06:19:03;;;;;;;13.27;10.20;;;;;;;;;;5050573;28;20273;-70
2021/04/23 06:21:48;;;;;;;14.33;9.63;;;;;;;;;;5050977;28;20308;-70
2021/04/23 06:24:33;;;;;;;17.30;10.37;;;;;;;;;;5050924;28;20295;-70
2021/04/23 06:27:18;;;;;;;18.10;9.17;;;;;;;;;;5050355;28;20733;-71
2021/04/23 06:30:05;;;;;;;15.23;10.40;;;;;;;;;;5050725;28;20701;-72
2021/04/23 06:32:50;;;;;;;14.87;9.33;;;;;;;;;;5051078;28;20341;-72
2021/04/23 06:35:35;;;;;;;13.50;9.43;;;;;;;;;;5051270;28;20310;-72
2021/04/23 06:38:20;;;;;;;13.00;9.23;;;;;;;;;;5051080;28;20620;-73
2021/04/23 06:41:05;;;;;;;14.33;9.27;;;;;;;;;;5050426;28;20197;-73
2021/04/23 06:43:49;;;;;;;10.30;8.57;;;;;;;;;;5051163;28;20695;-72
2021/04/23 06:46:34;;;;;;;12.43;9.33;;;;;;;;;;5050040;28;20275;-73
2021/04/23 06:49:18;;;;;;;15.30;9.33;;;;;;;;;;5050433;28;20228;-72
2021/04/23 06:52:04;;;;;;;20.97;9.23;;;;;;;;;;5050759;28;20209;-72
2021/04/23 06:54:50;;;;;;;16.38;9.57;;;;;;;;;;5050166;28;20551;-72
2021/04/23 06:57:34;;;;;;;14.23;9.57;;;;;;;;;;5050488;28;20217;-72
2021/04/23 07:00:21;;;;;;;18.27;8.73;;;;;;;;;;5049776;28;20208;-74
2021/04/23 07:03:06;;;;;;;16.33;8.57;;;;;;;;;;5050900;28;20733;-75
2021/04/23 07:05:52;;;;;;;12.83;8.03;;;;;;;;;;5050862;28;20228;-74
2021/04/23 07:08:37;;;;;;;16.10;7.90;;;;;;;;;;5050070;28;20291;-69
2021/04/23 07:11:22;;;;;;;15.20;8.10;;;;;;;;;;5050362;28;20252;-70
2021/04/23 07:14:06;;;;;;;14.30;7.73;;;;;;;;;;5048199;28;20202;-68
2021/04/23 07:16:51;;;;;;;13.10;7.73;;;;;;;;;;5047955;28;20216;-69
2021/04/23 07:19:36;;;;;;;17.53;8.57;;;;;;;;;;5048418;28;20945;-69
2021/04/23 07:22:20;;;;;;;10.30;7.17;;;;;;;;;;5046467;28;20259;-69
2021/04/23 07:25:06;;;;;;;10.73;6.70;;;;;;;;;;5048679;28;20726;-72
2021/04/23 07:27:51;;;;;;;12.60;6.85;;;;;;;;;;5047977;28;20938;-72
2021/04/23 07:30:36;;;;;;;12.33;6.60;;;;;;;;;;5049192;28;20246;-72
2021/04/23 07:33:20;;;;;;;13.30;5.67;;;;;;;;;;5050259;28;20219;-74
2021/04/23 07:36:05;;;;;;;10.90;5.30;;;;;;;;;;5050151;28;20277;-72
2021/04/23 07:38:50;;;;;;;7.20;4.37;;;;;;;;;;5049911;28;20687;-74
2021/04/23 07:41:35;;;;;;;10.05;4.88;;;;;;;;;;5048915;28;20468;-73
2021/04/23 07:44:20;;;;;;;8.37;4.67;;;;;;;;;;5049340;28;20851;-74
2021/04/23 07:47:05;;;;;;;8.13;4.50;;;;;;;;;;5030106;28;20262;-72
2021/04/23 07:49:49;;;;;;;8.60;4.43;;;;;;;;;;5039586;28;20207;-73
2021/04/23 07:52:34;;;;;;;10.80;4.40;;;;;;;;;;5050347;28;20313;-71
2021/04/23 07:55:19;;;;;;;10.10;3.80;;;;;;;;;;5050141;28;20219;-74
2021/04/23 07:58:04;;;;;;;7.50;3.20;;;;;;;;;;5053916;28;20216;-71
2021/04/23 08:00:48;;;;;;;8.93;3.87;;;;;;;;;;5049449;28;20205;-75
2021/04/23 08:03:33;;;;;;;9.73;4.17;;;;;;;;;;5031456;28;20211;-73
2021/04/23 08:06:17;;;;;;;10.57;4.37;;;;;;;;;;5049793;28;20269;-70
2021/04/23 08:09:02;;;;;;;7.77;4.40;;;;;;;;;;5053128;28;20335;-71
2021/04/23 08:11:46;;;;;;;9.87;4.67;;;;;;;;;;5053402;28;20237;-72
2021/04/23 08:14:32;;;;;;;13.03;4.60;;;;;;;;;;5053426;28;20198;-71
2021/04/23 08:17:16;;;;;;;10.50;4.10;;;;;;;;;;5052824;28;20265;-74
2021/04/23 08:20:01;;;;;;;10.43;4.03;;;;;;;;;;5052808;28;20371;-72
2021/04/23 08:22:45;;;;;;;6.43;4.33;;;;;;;;;;5050877;28;20701;-73
2021/04/23 08:25:30;;;;;;;9.00;4.40;;;;;;;;;;5052400;28;20702;-73
2021/04/23 08:28:14;;;;;;;9.48;5.25;;;;;;;;;;5052173;28;21007;-73
2021/04/23 08:31:00;;;;;;;8.67;4.50;;;;;;;;;;5052323;28;20256;-73
2021/04/23 08:33:45;;;;;;;10.43;3.97;;;;;;;;;;5053296;28;20246;-74
2021/04/23 08:36:29;;;;;;;9.27;4.50;;;;;;;;;;5052447;28;20228;-74
2021/04/23 08:39:14;;;;;;;12.97;4.23;;;;;;;;;;5052930;28;20296;-72
2021/04/23 08:41:58;;;;;;;8.37;4.00;;;;;;;;;;5052985;28;20293;-73
2021/04/23 08:44:43;;;;;;;10.40;3.73;;;;;;;;;;5053261;28;20269;-72
2021/04/23 08:47:29;;;;;;;9.43;4.07;;;;;;;;;;5051886;28;20240;-72
2021/04/23 08:50:14;;;;;;;9.93;4.07;;;;;;;;;;5052171;28;20251;-72
2021/04/23 08:52:59;;;;;;;9.80;3.90;;;;;;;;;;5052716;28;20679;-72
2021/04/23 08:55:43;;;;;;;8.97;4.00;;;;;;;;;;5051702;28;20198;-71
2021/04/23 08:58:28;;;;;;;10.53;4.80;;;;;;;;;;5050050;28;20261;-74
2021/04/23 09:01:13;;;;;;;9.98;4.90;;;;;;;;;;5051224;28;20493;-72
2021/04/23 09:03:58;;;;;;;12.10;4.73;;;;;;;;;;5052314;28;20782;-72
2021/04/23 09:06:43;;;;;;;11.67;4.67;;;;;;;;;;5034357;28;20314;-72
2021/04/23 09:09:33;;;;;;;15.80;5.17;;;;;;;;;;5051943;28;20285;-72
2021/04/23 09:12:18;;;;;;;9.20;3.80;;;;;;;;;;5052500;28;20250;-72
2021/04/23 09:15:04;;;;;;;9.95;4.38;;;;;;;;;;5051381;28;20509;-72
2021/04/23 09:18:03;;;;;;;7.93;3.80;;;;;;;;;;5049223;28;20587;-72
2021/04/23 09:20:49;;;;;;;7.23;3.33;;;;;;;;;;5050037;28;20236;-72
2021/04/23 09:23:44;;;;;;;8.20;3.77;;;;;;;;;;5052205;28;20741;-72
2021/04/23 09:26:30;;;;;;;8.03;3.40;;;;;;;;;;5052018;28;20574;-72
2021/04/23 09:29:22;;;;;;;9.50;3.80;;;;;;;;;;5051476;28;20292;-71
2021/04/23 09:32:11;;;;;;;7.93;3.60;;;;;;;;;;5051380;28;20565;-71
2021/04/23 09:34:58;;;;;;;8.23;3.87;;;;;;;;;;5051847;28;20267;-71
2021/04/23 09:37:44;;;;;;;10.53;3.67;;;;;;;;;;5051933;28;20250;-70
2021/04/23 09:40:29;;;;;;;6.60;3.37;;;;;;;;;;5047642;28;20688;-71
2021/04/23 09:43:16;;;;;;;8.70;3.90;;;;;;;;;;5051525;28;20242;-71
2021/04/23 09:46:01;;;;;;;10.73;3.50;;;;;;;;;;5051573;28;20226;-72
2021/04/23 09:48:46;;;;;;;6.97;3.60;;;;;;;;;;5050506;28;20502;-71
2021/04/23 09:51:35;;;;;;;9.00;3.73;;;;;;;;;;5050961;28;20286;-71
2021/04/23 09:54:22;;;;;;;8.90;3.90;;;;;;;;;;5051154;28;20235;-72
2021/04/23 09:57:14;;;;;;;8.43;3.57;;;;;;;;;;5031758;28;20237;-71
2021/04/23 09:59:59;;;;;;;8.37;3.57;;;;;;;;;;5037581;28;20588;-71
2021/04/23 10:02:48;;;;;;;8.13;3.57;;;;;;;;;;5050620;28;20409;-72
2021/04/23 10:05:33;;;;;;;9.30;3.73;;;;;;;;;;5051234;28;20682;-71
2021/04/23 10:08:26;;;;;;;9.97;3.30;;;;;;;;;;5051309;28;20369;-71
2021/04/23 10:11:12;;;;;;;11.73;3.90;;;;;;;;;;5050067;28;20199;-71
2021/04/23 10:14:08;;;;;;;7.47;3.33;;;;;;;;;;5032093;28;20206;-71
2021/04/23 10:16:58;;;;;;;8.10;3.70;;;;;;;;;;5041339;28;20295;-71
2021/04/23 10:19:43;;;;;;;6.70;3.37;;;;;;;;;;5050496;28;20248;-71
2021/04/23 10:22:28;;;;;;;8.57;3.60;;;;;;;;;;5050854;28;20215;-71
2021/04/23 10:25:13;;;;;;;7.50;3.70;;;;;;;;;;5050167;28;20202;-68
2021/04/23 10:27:59;;;;;;;8.03;3.63;;;;;;;;;;5050423;28;20828;-71
2021/04/23 10:30:45;;;;;;;9.37;3.70;;;;;;;;;;5049977;28;20238;-69
2021/04/23 10:33:31;;;;;;;10.13;3.73;;;;;;;;;;5051121;28;20263;-68
2021/04/23 10:36:15;;;;;;;8.50;4.43;;;;;;;;;;5049813;28;20447;-69
2021/04/23 10:39:00;;;;;;;9.97;4.03;;;;;;;;;;5050937;28;20207;-69
2021/04/23 10:41:45;;;;;;;7.53;3.37;;;;;;;;;;5050377;28;20249;-70
2021/04/23 10:44:50;;;;;;;7.90;3.40;;;;;;;;;;5050684;28;20266;-70
2021/04/23 10:47:35;;;;;;;6.33;3.23;;;;;;;;;;5050475;28;20255;-71
2021/04/23 10:50:20;;;;;;;10.97;3.87;;;;;;;;;;5048812;28;20440;-71
2021/04/23 10:53:06;;;;;;;6.63;3.30;;;;;;;;;;5050525;28;20797;-72
2021/04/23 10:55:52;;;;;;;8.13;3.43;;;;;;;;;;5050289;28;20744;-71
2021/04/23 10:58:38;;;;;;;9.03;3.37;;;;;;;;;;5050685;28;20674;-71
2021/04/23 11:01:25;;;;;;;9.07;3.13;;;;;;;;;;5049776;28;20224;-71
2021/04/23 11:04:13;;;;;;;6.87;3.13;;;;;;;;;;5050502;28;20290;-72
2021/04/23 11:07:00;;;;;;;10.93;3.60;;;;;;;;;;5050403;28;20756;-71
2021/04/23 11:09:56;;;;;;;6.07;3.10;;;;;;;;;;5049997;28;20340;-71
2021/04/23 11:12:41;;;;;;;7.93;3.47;;;;;;;;;;5050461;28;20213;-70
2021/04/23 11:15:25;;;;;;;8.90;3.17;;;;;;;;;;5050107;28;20203;-67
2021/04/23 11:18:25;;;;;;;8.20;3.50;;;;;;;;;;5050227;28;20590;-68
2021/04/23 11:21:31;;;;;;;7.53;3.10;;;;;;;;;;5046105;28;20946;-66
2021/04/23 11:24:17;;;;;;;6.07;2.80;;;;;;;;;;5050047;28;20332;-67
2021/04/23 11:27:11;;;;;;;8.33;3.10;;;;;;;;;;5050260;28;20229;-66
2021/04/23 11:30:08;;;;;;;8.77;3.50;;;;;;;;;;5044714;28;20821;-66
2021/04/23 11:32:53;;;;;;;5.70;3.13;;;;;;;;;;5050537;28;20603;-67
2021/04/23 11:35:37;;;;;;;6.87;3.63;;;;;;;;;;5048964;28;20212;-67
2021/04/23 11:38:50;;;;;;;6.97;3.30;;;;;;;;;;5049890;28;20761;-66
2021/04/23 11:41:36;;;;;;;7.30;3.23;;;;;;;;;;5049895;28;20267;-66
2021/04/23 11:44:39;;;;;;;8.07;3.13;;;;;;;;;;5054257;28;20267;-67
2021/04/23 11:47:33;;;;;;;6.37;3.00;;;;;;;;;;5053498;28;20228;-66
2021/04/23 11:50:19;;;;;;;7.17;3.07;;;;;;;;;;5053529;28;20228;-67
2021/04/23 11:53:05;;;;;;;6.33;3.37;;;;;;;;;;5054177;28;20251;-67
2021/04/23 11:55:50;;;;;;;8.10;3.57;;;;;;;;;;5053564;28;20275;-67
2021/04/23 11:58:38;;;;;;;8.87;3.73;;;;;;;;;;5053686;28;20206;-66
2021/04/23 12:01:22;;;;;;;7.73;3.80;;;;;;;;;;5053188;28;20282;-66
2021/04/23 12:04:07;;;;;;;6.93;4.07;;;;;;;;;;5053415;28;20209;-66
2021/04/23 12:06:53;;;;;;;6.07;3.50;;;;;;;;;;5052753;28;20220;-66
2021/04/23 12:09:37;;;;;;;7.50;3.73;;;;;;;;;;5037295;28;20251;-67
2021/04/23 12:12:30;;;;;;;8.43;3.33;;;;;;;;;;5053295;28;20205;-67
2021/04/23 12:15:26;;;;;;;9.73;3.80;;;;;;;;;;5051868;28;20240;-66
2021/04/23 12:18:11;;;;;;;6.60;3.50;;;;;;;;;;5046731;28;20208;-69
2021/04/23 12:20:55;;;;;;;6.03;3.20;;;;;;;;;;5047632;28;20267;-69
2021/04/23 12:23:40;;;;;;;10.07;3.57;;;;;;;;;;5052322;28;20302;-69
2021/04/23 12:26:24;;;;;;;7.90;4.43;;;;;;;;;;5052710;28;20533;-68
2021/04/23 12:29:09;;;;;;;5.70;3.63;;;;;;;;;;5052812;28;20274;-67
2021/04/23 12:31:54;;;;;;;5.83;3.77;;;;;;;;;;5052863;28;20208;-67
2021/04/23 12:34:39;;;;;;;7.33;3.50;;;;;;;;;;5051870;28;20228;-67
2021/04/23 12:37:23;;;;;;;6.73;3.80;;;;;;;;;;5052880;28;20726;-68
2021/04/23 12:40:09;;;;;;;6.53;3.63;;;;;;;;;;5046313;28;20260;-67
2021/04/23 12:42:53;;;;;;;8.20;3.60;;;;;;;;;;5052716;28;20205;-67
2021/04/23 12:45:40;;;;;;;6.73;3.50;;;;;;;;;;5053135;28;20224;-67
2021/04/23 12:48:27;;;;;;;7.17;3.47;;;;;;;;;;5052412;28;20220;-68
2021/04/23 12:51:11;;;;;;;9.53;3.87;;;;;;;;;;5051696;28;20687;-68
2021/04/23 12:53:56;;;;;;;8.10;4.03;;;;;;;;;;5046183;28;20261;-68
2021/04/23 12:56:41;;;;;;;7.33;3.70;;;;;;;;;;5050602;28;20310;-67
2021/04/23 12:59:47;;;;;;;6.13;3.80;;;;;;;;;;5050387;28;20228;-72
2021/04/23 13:02:32;;;;;;;7.83;3.70;;;;;;;;;;5043363;28;20707;-71
2021/04/23 13:05:18;;;;;;;5.73;3.30;;;;;;;;;;5050443;28;20581;-73
2021/04/23 13:08:03;;;;;;;7.83;4.03;;;;;;;;;;5050427;28;20250;-71
2021/04/23 13:10:49;;;;;;;7.37;4.17;;;;;;;;;;5049647;28;20401;-70
2021/04/23 13:13:39;;;;;;;8.97;3.70;;;;;;;;;;5050375;28;20431;-73
2021/04/23 13:16:23;;;;;;;8.03;3.50;;;;;;;;;;5050139;28;20232;-72
2021/04/23 13:19:08;;;;;;;10.10;3.87;;;;;;;;;;5050486;28;20204;-72
2021/04/23 13:21:53;;;;;;;7.30;3.43;;;;;;;;;;5050511;28;20260;-71
2021/04/23 13:24:37;;;;;;;6.40;4.10;;;;;;;;;;5050046;28;20229;-72
2021/04/23 13:27:26;;;;;;;8.83;3.93;;;;;;;;;;5052476;28;20343;-73
2021/04/23 13:30:25;;;;;;;7.33;3.73;;;;;;;;;;5051752;28;20201;-75
2021/04/23 13:33:11;;;;;;;6.10;3.10;;;;;;;;;;5050099;28;20313;-74
2021/04/23 13:36:06;;;;;;;7.87;3.83;;;;;;;;;;5047180;28;20228;-74
2021/04/23 13:38:52;;;;;;;8.77;4.73;;;;;;;;;;5052092;28;20205;-72
2021/04/23 13:41:38;;;;;;;5.17;3.50;;;;;;;;;;5051747;28;20339;-72
2021/04/23 13:44:23;;;;;;;7.27;3.80;;;;;;;;;;5051895;28;20578;-72
2021/04/23 13:47:10;;;;;;;5.00;3.50;;;;;;;;;;5052074;28;20561;-72
2021/04/23 13:49:54;;;;;;;7.53;3.33;;;;;;;;;;5051553;28;20204;-72
2021/04/23 13:52:43;;;;;;;6.80;3.50;;;;;;;;;;5051600;28;20258;-73
2021/04/23 13:55:28;;;;;;;8.35;3.70;;;;;;;;;;5051315;28;20559;-72
2021/04/23 13:58:13;;;;;;;7.33;3.30;;;;;;;;;;5051960;28;20201;-72
2021/04/23 14:00:58;;;;;;;7.23;3.43;;;;;;;;;;5051312;28;20216;-73
2021/04/23 14:03:42;;;;;;;4.97;3.27;;;;;;;;;;5051458;28;20258;-72
2021/04/23 14:06:27;;;;;;;5.63;3.13;;;;;;;;;;5051142;28;20197;-73
2021/04/23 14:09:13;;;;;;;6.67;3.60;;;;;;;;;;5050857;28;20243;-72
2021/04/23 14:11:59;;;;;;;5.80;3.90;;;;;;;;;;5051136;28;20199;-72
2021/04/23 14:14:43;;;;;;;7.47;4.00;;;;;;;;;;5051277;28;20224;-72
2021/04/23 14:17:29;;;;;;;6.30;3.37;;;;;;;;;;5051324;28;20211;-72
2021/04/23 14:20:14;;;;;;;5.33;3.23;;;;;;;;;;5050842;28;20212;-72
2021/04/23 14:22:59;;;;;;;6.00;3.30;;;;;;;;;;5051581;28;20224;-72
2021/04/23 14:25:43;;;;;;;6.67;3.67;;;;;;;;;;5051546;28;20268;-73
2021/04/23 14:28:29;;;;;;;6.43;3.70;;;;;;;;;;5050096;28;20436;-72
2021/04/23 14:31:13;;;;;;;10.70;3.50;;;;;;;;;;5050681;28;20422;-73
2021/04/23 14:33:58;;;;;;;6.30;3.20;;;;;;;;;;5051263;28;20573;-72
2021/04/23 14:36:42;;;;;;;8.30;4.27;;;;;;;;;;5050994;28;20239;-72
2021/04/23 14:39:27;;;;;;;5.73;3.27;;;;;;;;;;5050569;28;20747;-73
2021/04/23 14:42:11;;;;;;;7.88;3.53;;;;;;;;;;5049979;28;20440;-72
2021/04/23 14:44:59;;;;;;;7.33;3.63;;;;;;;;;;5050938;28;20217;-72
2021/04/23 14:47:43;;;;;;;5.40;3.10;;;;;;;;;;5050954;28;20691;-73
2021/04/23 14:50:28;;;;;;;8.50;3.70;;;;;;;;;;5050144;28;20205;-73
2021/04/23 14:53:13;;;;;;;7.50;2.90;;;;;;;;;;5050621;28;20576;-72
2021/04/23 14:55:57;;;;;;;6.00;3.40;;;;;;;;;;5050698;28;20220;-74
2021/04/23 14:58:42;;;;;;;5.93;3.10;;;;;;;;;;5051043;28;20588;-72
2021/04/23 15:01:27;;;;;;;7.27;3.50;;;;;;;;;;5050395;28;20203;-72
2021/04/23 15:04:12;;;;;;;5.73;3.27;;;;;;;;;;5050652;28;20238;-73
2021/04/23 15:06:56;;;;;;;5.50;3.10;;;;;;;;;;5050380;28;20248;-73
2021/04/23 15:09:40;;;;;;;5.23;2.90;;;;;;;;;;5050169;28;20216;-73
2021/04/23 15:12:25;;;;;;;6.35;3.50;;;;;;;;;;5050375;28;20539;-72
2021/04/23 15:15:10;;;;;;;5.80;3.30;;;;;;;;;;5050572;28;20750;-72
2021/04/23 15:17:55;;;;;;;5.90;3.50;;;;;;;;;;5053057;28;20224;-72
2021/04/23 15:20:40;;;;;;;7.50;3.53;;;;;;;;;;5054192;28;20212;-73
2021/04/23 15:23:24;;;;;;;9.90;4.03;;;;;;;;;;5054898;28;20765;-73
2021/04/23 15:26:09;;;;;;;6.27;3.40;;;;;;;;;;5054609;28;20675;-73
2021/04/23 15:28:53;;;;;;;6.50;3.50;;;;;;;;;;5054342;28;20734;-73
2021/04/23 15:31:38;;;;;;;8.37;4.30;;;;;;;;;;5054336;28;20285;-73
2021/04/23 15:34:24;;;;;;;6.73;4.20;;;;;;;;;;5054482;28;20286;-73
2021/04/23 15:37:08;;;;;;;6.27;4.00;;;;;;;;;;5054384;28;20200;-73
2021/04/23 15:39:53;;;;;;;6.37;4.20;;;;;;;;;;5053714;28;20241;-73
2021/04/23 15:42:37;;;;;;;10.67;4.07;;;;;;;;;;5054377;28;20197;-73
2021/04/23 15:45:24;;;;;;;6.23;4.23;;;;;;;;;;5054297;28;20275;-73
2021/04/23 15:48:09;;;;;;;6.33;4.17;;;;;;;;;;5054083;28;20252;-74
2021/04/23 15:50:56;;;;;;;7.03;4.10;;;;;;;;;;5053746;28;20201;-73
2021/04/23 15:53:41;;;;;;;9.33;4.00;;;;;;;;;;5054088;28;20197;-73
2021/04/23 15:56:26;;;;;;;6.27;4.07;;;;;;;;;;5054144;28;20283;-74
2021/04/23 15:59:10;;;;;;;7.57;3.70;;;;;;;;;;5054034;28;20208;-73
2021/04/23 16:01:55;;;;;;;6.57;3.77;;;;;;;;;;5053687;28;20244;-73
2021/04/23 16:04:39;;;;;;;8.60;3.93;;;;;;;;;;5053772;28;20217;-73
2021/04/23 16:07:25;;;;;;;7.23;3.50;;;;;;;;;;5053902;28;20204;-73
2021/04/23 16:10:10;;;;;;;8.40;3.30;;;;;;;;;;5053750;28;20239;-73
2021/04/23 16:12:55;;;;;;;10.10;4.07;;;;;;;;;;5053419;28;20417;-73
2021/04/23 16:15:40;;;;;;;9.20;4.30;;;;;;;;;;5053344;28;20272;-73
2021/04/23 16:18:24;;;;;;;8.87;3.90;;;;;;;;;;5053996;28;20563;-73
2021/04/23 16:21:09;;;;;;;5.60;3.70;;;;;;;;;;5053143;28;20213;-73
2021/04/23 16:23:54;;;;;;;9.07;3.80;;;;;;;;;;5053672;28;20567;-73
2021/04/23 16:26:39;;;;;;;8.73;3.97;;;;;;;;;;5053849;28;20197;-73
2021/04/23 16:29:23;;;;;;;6.60;3.77;;;;;;;;;;5052354;28;20244;-72